Time;durP1;ratioP1;P1;durP2;ratioP2;P2;SDS_P1;SDS_P2;PMS_P1;PMS_P2;Temp;Humidity;BMP_temperature;BMP_pressure;BME280_temperature;BME280_humidity;BME280_pressure;Samples;Min_cycle;Max_cycle;Signal;HPM_P1;HPM_P2
2024/02/18 00:00:54;;;;;;;36.83;22.40;;;;;;;4.29;100.00;100142.63;6108456;19;20002;-74
2024/02/18 00:02:55;;;;;;;44.60;23.70;;;;;;;4.29;100.00;100144.56;6107871;19;19998;-75
2024/02/18 00:04:56;;;;;;;43.92;25.38;;;;;;;4.26;100.00;100142.44;6107394;19;20005;-74
2024/02/18 00:06:56;;;;;;;40.15;22.13;;;;;;;4.25;100.00;100135.31;6108388;19;20014;-74
2024/02/18 00:08:56;;;;;;;44.17;24.00;;;;;;;4.26;100.00;100136.94;6108422;19;20467;-74
2024/02/18 00:10:57;;;;;;;40.33;20.48;;;;;;;4.26;100.00;100137.75;6108444;19;20006;-74
2024/02/18 00:12:57;;;;;;;32.55;18.42;;;;;;;4.23;100.00;100132.88;6108431;19;19998;-74
2024/02/18 00:14:58;;;;;;;35.80;21.20;;;;;;;4.20;100.00;100139.75;6095491;19;20471;-74
2024/02/18 00:16:58;;;;;;;37.17;20.35;;;;;;;4.18;100.00;100139.25;6108201;19;20062;-74
2024/02/18 00:18:59;;;;;;;33.45;17.83;;;;;;;4.16;100.00;100132.44;6106648;19;20014;-74
2024/02/18 00:20:59;;;;;;;30.80;17.65;;;;;;;4.18;100.00;100128.28;6108122;19;20006;-75
2024/02/18 00:23:01;;;;;;;29.00;17.02;;;;;;;4.20;100.00;100130.72;6106472;19;20090;-74
2024/02/18 00:25:01;;;;;;;27.35;16.63;;;;;;;4.16;100.00;100126.94;6107708;19;20010;-74
2024/02/18 00:27:01;;;;;;;25.73;14.90;;;;;;;4.10;100.00;100130.88;6107428;19;20467;-74
2024/02/18 00:29:03;;;;;;;23.30;13.73;;;;;;;4.08;100.00;100130.34;6102433;19;20013;-74
2024/02/18 00:31:04;;;;;;;21.30;13.20;;;;;;;4.05;100.00;100128.19;6104679;19;19999;-74
2024/02/18 00:33:04;;;;;;;23.50;13.73;;;;;;;4.02;100.00;100124.13;6107858;19;19999;-74
2024/02/18 00:35:05;;;;;;;21.30;11.95;;;;;;;3.98;100.00;100120.34;6107506;19;20003;-74
2024/02/18 00:37:05;;;;;;;20.85;12.98;;;;;;;3.93;100.00;100129.44;6107663;19;20005;-74
2024/02/18 00:39:09;;;;;;;21.80;12.77;;;;;;;3.93;100.00;100126.69;6107339;19;20002;-74
2024/02/18 00:41:10;;;;;;;24.52;14.23;;;;;;;3.91;100.00;100120.72;6105266;19;20007;-74
2024/02/18 00:43:11;;;;;;;29.90;17.45;;;;;;;3.90;100.00;100118.28;6106446;19;20002;-74
2024/02/18 00:45:12;;;;;;;34.65;17.60;;;;;;;3.89;100.00;100122.94;6107523;19;20009;-74
2024/02/18 00:47:13;;;;;;;30.08;17.35;;;;;;;3.85;100.00;100127.34;6107554;19;20003;-74
2024/02/18 00:49:13;;;;;;;28.88;16.10;;;;;;;3.81;100.00;100129.06;6105475;19;20468;-74
2024/02/18 00:51:13;;;;;;;23.25;13.18;;;;;;;3.77;100.00;100118.97;6106243;19;20290;-74
2024/02/18 00:53:14;;;;;;;22.08;13.20;;;;;;;3.78;100.00;100126.88;6107470;19;20010;-74
2024/02/18 00:55:14;;;;;;;24.40;13.65;;;;;;;3.79;100.00;100123.03;6107571;19;20054;-74
2024/02/18 00:57:14;;;;;;;24.25;14.88;;;;;;;3.82;100.00;100119.75;6108188;19;20735;-75
2024/02/18 00:59:15;;;;;;;20.70;13.13;;;;;;;3.81;100.00;100123.59;6107094;19;20567;-75
2024/02/18 01:01:15;;;;;;;22.70;12.98;;;;;;;3.86;100.00;100128.16;6105879;19;20351;-74
2024/02/18 01:03:16;;;;;;;19.00;12.07;;;;;;;3.86;100.00;100125.44;6107442;19;20030;-74
2024/02/18 01:05:16;;;;;;;21.13;13.23;;;;;;;3.90;100.00;100126.47;6112420;19;20071;-74
2024/02/18 01:07:16;;;;;;;26.00;13.07;;;;;;;3.94;100.00;100119.28;6113569;19;20023;-74
2024/02/18 01:09:17;;;;;;;21.63;12.73;;;;;;;4.00;100.00;100129.09;6110814;19;20009;-74
2024/02/18 01:11:17;;;;;;;20.50;11.38;;;;;;;4.02;100.00;100126.03;6113245;19;20010;-75
2024/02/18 01:13:17;;;;;;;19.75;12.32;;;;;;;4.00;100.00;100123.59;6112613;19;19998;-74
2024/02/18 01:15:18;;;;;;;21.52;12.07;;;;;;;4.01;100.00;100119.75;6106466;19;20007;-75
2024/02/18 01:17:18;;;;;;;23.75;13.88;;;;;;;4.02;100.00;100126.84;6104726;19;20007;-74
2024/02/18 01:19:20;;;;;;;21.23;12.80;;;;;;;4.03;100.00;100133.97;6103117;19;20014;-74
2024/02/18 01:21:20;;;;;;;20.27;12.30;;;;;;;4.03;100.00;100127.66;6103646;19;20665;-74
2024/02/18 01:23:21;;;;;;;21.55;12.40;;;;;;;4.05;100.00;100133.66;6104792;19;20024;-74
2024/02/18 01:25:21;;;;;;;22.50;11.85;;;;;;;4.05;100.00;100125.44;6104945;19;20003;-74
2024/02/18 01:27:21;;;;;;;19.90;11.73;;;;;;;4.05;100.00;100133.66;6104453;19;20436;-74
2024/02/18 01:29:22;;;;;;;16.77;11.07;;;;;;;4.05;100.00;100123.53;6102835;19;20003;-74
2024/02/18 01:31:23;;;;;;;16.75;10.77;;;;;;;4.05;100.00;100131.72;6104374;19;20401;-74
2024/02/18 01:33:23;;;;;;;17.45;10.10;;;;;;;4.06;100.00;100125.19;6104183;19;20011;-74
2024/02/18 01:35:23;;;;;;;16.63;10.68;;;;;;;4.07;100.00;100132.28;6103267;19;20002;-74
2024/02/18 01:37:24;;;;;;;18.20;10.15;;;;;;;4.08;100.00;100122.13;6105358;19;20019;-74
2024/02/18 01:39:25;;;;;;;18.55;11.27;;;;;;;4.06;100.00;100121.63;6102191;19;20007;-74
2024/02/18 01:41:26;;;;;;;19.15;10.82;;;;;;;4.08;100.00;100124.88;6103942;19;20007;-74
2024/02/18 01:43:26;;;;;;;17.58;10.77;;;;;;;4.12;100.00;100128.63;6104272;19;20114;-74
2024/02/18 01:45:26;;;;;;;14.65;9.85;;;;;;;4.13;100.00;100130.25;6104328;19;20007;-74
2024/02/18 01:47:27;;;;;;;16.42;10.07;;;;;;;4.15;100.00;100131.63;6104562;19;20017;-75
2024/02/18 01:49:30;;;;;;;14.75;10.15;;;;;;;4.13;100.00;100120.13;6103256;19;20011;-74
2024/02/18 01:51:30;;;;;;;20.30;10.85;;;;;;;4.17;100.00;100121.19;6104658;19;20530;-74
2024/02/18 01:53:32;;;;;;;17.42;10.20;;;;;;;4.21;100.00;100118.66;6105141;19;20335;-74
2024/02/18 01:55:33;;;;;;;17.85;10.27;;;;;;;4.27;100.00;100114.72;6104515;19;19999;-74
2024/02/18 01:57:34;;;;;;;16.02;9.88;;;;;;;4.30;100.00;100124.28;6104335;19;20777;-74
2024/02/18 01:59:35;;;;;;;17.15;10.60;;;;;;;4.31;100.00;100114.97;6103596;19;20079;-74
2024/02/18 02:01:37;;;;;;;16.65;10.02;;;;;;;4.31;100.00;100114.97;6104373;19;20385;-74
2024/02/18 02:03:38;;;;;;;16.13;10.73;;;;;;;4.31;100.00;100106.75;6104003;19;20013;-74
2024/02/18 02:05:41;;;;;;;17.33;10.30;;;;;;;4.36;100.00;100107.47;6103432;19;20007;-74
2024/02/18 02:07:42;;;;;;;19.33;10.57;;;;;;;4.41;100.00;100103.84;6105209;19;20633;-74
2024/02/18 02:09:43;;;;;;;17.13;10.50;;;;;;;4.41;100.00;100101.91;6104284;19;20010;-74
2024/02/18 02:11:44;;;;;;;19.83;11.23;;;;;;;4.43;100.00;100102.44;6103413;19;20336;-75
2024/02/18 02:13:44;;;;;;;16.95;10.40;;;;;;;4.43;100.00;100101.63;6104177;19;20010;-74
2024/02/18 02:15:45;;;;;;;15.77;9.75;;;;;;;4.42;100.00;100092.56;6106086;19;20007;-74
2024/02/18 02:17:46;;;;;;;15.90;9.63;;;;;;;4.46;100.00;100096.34;6111022;19;20010;-74
2024/02/18 02:19:46;;;;;;;15.77;9.95;;;;;;;4.41;100.00;100096.44;6110362;19;20007;-74
2024/02/18 02:21:46;;;;;;;18.00;9.65;;;;;;;4.41;100.00;100090.16;6112015;19;20014;-74
2024/02/18 02:23:47;;;;;;;17.40;10.20;;;;;;;4.38;100.00;100091.53;6110963;19;20015;-74
2024/02/18 02:25:47;;;;;;;15.32;9.73;;;;;;;4.36;100.00;100091.03;6110501;19;20009;-74
2024/02/18 02:28:11;;;;;;;16.58;10.93;;;;;;;4.35;100.00;100080.38;6111070;19;20036;-74
2024/02/18 02:30:13;;;;;;;15.52;9.73;;;;;;;4.34;100.00;100087.78;6007657;19;2006064;-74
2024/02/18 02:32:13;;;;;;;18.95;10.68;;;;;;;4.29;100.00;100079.63;6110075;19;20014;-74
2024/02/18 02:34:14;;;;;;;19.65;10.43;;;;;;;4.31;100.00;100076.59;6111283;19;19998;-74
2024/02/18 02:36:15;;;;;;;17.05;9.00;;;;;;;4.27;100.00;100079.09;6111818;19;20022;-74
2024/02/18 02:38:15;;;;;;;16.83;10.02;;;;;;;4.21;100.00;100077.56;6108766;19;20003;-74
2024/02/18 02:40:15;;;;;;;16.67;9.38;;;;;;;4.17;100.00;100071.06;6110808;19;20002;-74
2024/02/18 02:42:17;;;;;;;18.10;9.80;;;;;;;4.16;100.00;100061.22;6111364;19;20036;-74
2024/02/18 02:44:17;;;;;;;18.13;9.43;;;;;;;4.16;100.00;100066.69;6111663;19;20082;-74
2024/02/18 02:46:17;;;;;;;14.75;9.13;;;;;;;4.15;100.00;100063.13;6110962;19;20015;-74
2024/02/18 02:48:18;;;;;;;16.95;10.07;;;;;;;4.09;100.00;100056.09;6109558;19;20007;-74
2024/02/18 02:50:19;;;;;;;15.48;9.48;;;;;;;4.11;100.00;100059.34;6110143;19;20007;-74
2024/02/18 02:52:19;;;;;;;15.23;9.40;;;;;;;4.12;100.00;100057.41;6111107;19;20384;-74
2024/02/18 02:54:19;;;;;;;17.50;9.95;;;;;;;4.12;100.00;100058.22;6110290;19;20006;-74
2024/02/18 02:56:20;;;;;;;17.38;9.65;;;;;;;4.08;100.00;100050.91;6111431;19;19999;-74
2024/02/18 02:58:22;;;;;;;18.77;9.65;;;;;;;4.09;100.00;100050.63;6110058;19;20014;-74
2024/02/18 03:00:22;;;;;;;18.60;9.98;;;;;;;4.08;100.00;100045.44;6109530;19;20382;-75
2024/02/18 03:02:22;;;;;;;18.45;9.52;;;;;;;4.06;100.00;100036.72;6109169;19;20074;-74
2024/02/18 03:04:23;;;;;;;16.48;9.55;;;;;;;4.03;100.00;100038.09;6110937;19;20010;-74
2024/02/18 03:06:23;;;;;;;19.13;10.60;;;;;;;3.98;100.00;100038.19;6109742;19;20043;-75
2024/02/18 03:08:23;;;;;;;15.68;9.75;;;;;;;3.90;100.00;100038.84;6108986;19;20451;-74
2024/02/18 03:10:24;;;;;;;15.88;10.43;;;;;;;3.87;100.00;100037.50;6110745;19;20086;-74
2024/02/18 03:12:24;;;;;;;19.88;10.93;;;;;;;3.87;100.00;100040.25;6109867;19;20450;-74
2024/02/18 03:14:25;;;;;;;14.60;9.15;;;;;;;3.85;100.00;100034.25;6110189;19;20105;-74
2024/02/18 03:16:25;;;;;;;18.35;10.18;;;;;;;3.77;100.00;100028.63;6110599;19;20078;-74
2024/02/18 03:18:25;;;;;;;16.17;8.85;;;;;;;3.71;100.00;100032.53;6109175;19;20758;-74
2024/02/18 03:20:26;;;;;;;17.52;8.93;;;;;;;3.65;100.00;100035.38;6109903;19;20250;-74
2024/02/18 03:22:26;;;;;;;18.27;10.30;;;;;;;3.56;100.00;100026.19;6108870;19;20038;-74
2024/02/18 03:24:28;;;;;;;20.35;11.02;;;;;;;3.51;100.00;100030.91;6109470;19;20006;-74
2024/02/18 03:26:29;;;;;;;20.02;11.07;;;;;;;3.43;100.00;100037.03;6109690;19;20071;-74
2024/02/18 03:28:30;;;;;;;17.33;10.32;;;;;;;3.41;100.00;100025.56;6109212;19;20011;-74
2024/02/18 03:30:30;;;;;;;17.00;10.70;;;;;;;3.43;100.00;100026.06;6109344;19;20018;-74
2024/02/18 03:32:35;;;;;;;17.65;10.20;;;;;;;3.35;100.00;100019.34;6110652;19;20011;-75
2024/02/18 03:34:35;;;;;;;18.55;10.35;;;;;;;3.31;100.00;100013.66;6109321;19;20002;-74
2024/02/18 03:36:35;;;;;;;15.80;9.73;;;;;;;3.28;100.00;100022.41;6108954;19;20455;-74
2024/02/18 03:38:35;;;;;;;16.35;9.95;;;;;;;3.22;100.00;100017.28;6108854;19;20013;-74
2024/02/18 03:40:36;;;;;;;18.90;9.65;;;;;;;3.17;100.00;100020.91;6109431;19;20044;-74
2024/02/18 03:42:36;;;;;;;16.10;10.00;;;;;;;3.11;100.00;100024.81;6109735;19;21057;-74
2024/02/18 03:44:36;;;;;;;15.48;10.00;;;;;;;3.13;100.00;100021.78;6109455;19;20033;-74
2024/02/18 03:46:37;;;;;;;16.23;9.90;;;;;;;3.14;100.00;100031.59;6109152;19;20006;-74
2024/02/18 03:48:37;;;;;;;15.85;10.00;;;;;;;3.07;100.00;100030.06;6107815;19;20459;-74
2024/02/18 03:50:38;;;;;;;21.67;10.68;;;;;;;3.00;100.00;100028.78;6108566;19;20034;-74
2024/02/18 03:52:38;;;;;;;26.20;13.73;;;;;;;2.91;100.00;100028.59;6109774;19;20003;-74
2024/02/18 03:54:38;;;;;;;22.98;13.50;;;;;;;2.86;100.00;100025.09;6109412;19;20016;-74
2024/02/18 03:56:39;;;;;;;23.15;11.93;;;;;;;2.89;100.00;100029.97;6109531;19;20014;-74
2024/02/18 03:58:39;;;;;;;18.85;11.05;;;;;;;2.92;100.00;100018.47;6108632;19;20011;-74
2024/02/18 04:00:45;;;;;;;22.48;11.07;;;;;;;2.94;100.00;100027.19;6108000;19;20438;-74
2024/02/18 04:02:46;;;;;;;22.50;12.35;;;;;;;2.87;100.00;100013.88;6106983;19;20007;-74
2024/02/18 04:04:46;;;;;;;22.70;12.45;;;;;;;2.85;100.00;100018.81;6109243;19;20006;-74
2024/02/18 04:06:47;;;;;;;19.33;11.35;;;;;;;2.81;100.00;100017.75;6108923;19;20491;-74
2024/02/18 04:08:47;;;;;;;23.45;12.63;;;;;;;2.84;100.00;100013.63;6108334;19;20339;-74
2024/02/18 04:10:47;;;;;;;23.15;11.55;;;;;;;2.81;100.00;100007.66;6109614;19;20003;-74
2024/02/18 04:12:48;;;;;;;24.02;13.73;;;;;;;2.74;100.00;100012.66;6108269;19;20053;-74
2024/02/18 04:14:49;;;;;;;22.85;12.52;;;;;;;2.66;100.00;99999.59;6108365;19;20031;-74
2024/02/18 04:16:49;;;;;;;20.17;11.52;;;;;;;2.63;100.00;100011.09;6108402;19;20343;-74
2024/02/18 04:18:49;;;;;;;19.55;11.13;;;;;;;2.61;100.00;100016.03;6107284;19;19998;-74
2024/02/18 04:20:51;;;;;;;22.55;12.48;;;;;;;2.58;100.00;100013.91;6109271;19;19999;-74
2024/02/18 04:22:51;;;;;;;17.85;9.75;;;;;;;2.56;100.00;100013.34;6109118;19;20007;-74
2024/02/18 04:24:51;;;;;;;20.65;11.27;;;;;;;2.48;100.00;100008.50;6108124;19;20009;-74
2024/02/18 04:26:52;;;;;;;25.25;12.10;;;;;;;2.49;100.00;100000.03;6108691;19;20020;-74
2024/02/18 04:28:52;;;;;;;15.68;9.32;;;;;;;2.46;100.00;100006.06;6107374;19;20007;-74
2024/02/18 04:30:52;;;;;;;18.70;10.32;;;;;;;2.43;100.00;100003.91;6108359;19;20037;-74
2024/02/18 04:32:53;;;;;;;17.98;10.07;;;;;;;2.42;100.00;99999.56;6108658;19;20010;-74
2024/02/18 04:34:53;;;;;;;14.30;8.93;;;;;;;2.34;100.00;99999.38;6108806;19;20002;-74
2024/02/18 04:36:53;;;;;;;17.70;9.50;;;;;;;2.29;100.00;100002.13;6108392;19;20027;-74
2024/02/18 04:38:53;;;;;;;17.15;10.55;;;;;;;2.29;100.00;100013.06;6106194;19;20429;-74
2024/02/18 04:40:54;;;;;;;16.38;9.88;;;;;;;2.31;100.00;99998.00;6108515;19;20011;-74
2024/02/18 04:42:54;;;;;;;14.90;9.05;;;;;;;2.27;100.00;99996.97;6107245;19;20463;-74
2024/02/18 04:44:54;;;;;;;18.30;9.63;;;;;;;2.28;100.00;99990.38;6107022;19;20011;-74
2024/02/18 04:46:55;;;;;;;16.17;10.25;;;;;;;2.22;100.00;100006.00;6108793;19;20043;-74
2024/02/18 04:48:58;;;;;;;14.68;9.05;;;;;;;2.15;100.00;99991.03;6108038;19;20476;-74
2024/02/18 04:50:59;;;;;;;15.88;9.43;;;;;;;2.09;100.00;99997.66;6107504;19;20003;-74
2024/02/18 04:52:59;;;;;;;18.17;9.60;;;;;;;2.02;100.00;99997.16;6108598;19;20427;-74
2024/02/18 04:55:00;;;;;;;15.80;9.32;;;;;;;1.96;100.00;99999.09;6108677;19;20078;-74
2024/02/18 04:57:01;;;;;;;17.30;9.75;;;;;;;1.95;100.00;99997.47;6109092;19;20002;-74
2024/02/18 04:59:01;;;;;;;16.42;9.23;;;;;;;1.92;100.00;99993.41;6107168;19;20011;-74
2024/02/18 05:01:02;;;;;;;16.70;9.63;;;;;;;1.85;100.00;100003.00;6108637;19;20086;-74
2024/02/18 05:03:02;;;;;;;15.60;8.20;;;;;;;1.84;100.00;100007.66;6108808;19;20006;-74
2024/02/18 05:05:04;;;;;;;13.52;8.48;;;;;;;1.78;100.00;99995.13;6107612;19;20003;-74
2024/02/18 05:07:05;;;;;;;15.38;8.52;;;;;;;1.74;100.00;99996.81;6107751;19;20319;-74
2024/02/18 05:09:05;;;;;;;11.57;7.70;;;;;;;1.68;100.00;100003.41;6107729;19;20009;-74
2024/02/18 05:11:06;;;;;;;13.50;7.97;;;;;;;1.65;100.00;100001.22;6108183;19;20003;-74
2024/02/18 05:13:06;;;;;;;13.55;7.97;;;;;;;1.61;100.00;100009.16;6107397;19;20017;-74
2024/02/18 05:15:07;;;;;;;13.15;8.02;;;;;;;1.58;100.00;100007.00;6097792;19;20007;-74
2024/02/18 05:17:08;;;;;;;13.98;7.72;;;;;;;1.57;100.00;100004.53;6108428;19;20007;-74
2024/02/18 05:19:08;;;;;;;15.05;8.20;;;;;;;1.57;100.00;100012.72;6107207;19;20899;-74
2024/02/18 05:21:08;;;;;;;12.07;8.30;;;;;;;1.58;100.00;99996.09;6105362;19;20462;-74
2024/02/18 05:23:09;;;;;;;13.90;8.50;;;;;;;1.60;100.00;100002.06;6107955;19;20016;-74
2024/02/18 05:25:10;;;;;;;13.13;7.40;;;;;;;1.64;100.00;99994.94;6104874;19;20066;-74
2024/02/18 05:27:10;;;;;;;15.70;8.77;;;;;;;1.72;100.00;99990.00;6107443;19;20381;-74
2024/02/18 05:29:10;;;;;;;14.15;9.07;;;;;;;1.77;100.00;99979.88;6106604;19;20248;-74
2024/02/18 05:31:22;;;;;;;15.13;8.88;;;;;;;1.69;100.00;99981.28;6104811;19;20010;-74
2024/02/18 05:33:24;;;;;;;13.50;7.97;;;;;;;1.63;100.00;99978.88;6107766;19;20340;-74
2024/02/18 05:35:25;;;;;;;14.47;8.23;;;;;;;1.60;100.00;99976.72;6106894;19;20267;-74
2024/02/18 05:37:25;;;;;;;10.98;7.80;;;;;;;1.55;100.00;99977.53;6107119;19;20557;-73
2024/02/18 05:39:25;;;;;;;13.98;8.15;;;;;;;1.49;100.00;99969.66;6106716;19;20330;-74
2024/02/18 05:41:25;;;;;;;14.25;7.90;;;;;;;1.45;100.00;99971.34;6106154;19;20003;-74
2024/02/18 05:43:26;;;;;;;15.25;8.23;;;;;;;1.46;100.00;99964.78;6102805;19;20027;-74
2024/02/18 05:45:31;;;;;;;17.17;9.02;;;;;;;1.50;100.00;99966.69;6106691;19;20336;-74
2024/02/18 05:47:31;;;;;;;12.60;8.10;;;;;;;1.56;100.00;99972.91;6107690;19;20007;-74
2024/02/18 05:49:32;;;;;;;13.85;8.20;;;;;;;1.54;100.00;99958.72;6105606;19;20030;-74
2024/02/18 05:51:32;;;;;;;13.07;8.45;;;;;;;1.55;100.00;99963.91;6111158;19;19999;-74
2024/02/18 05:53:33;;;;;;;12.32;7.35;;;;;;;1.54;100.00;99956.00;6111800;19;20006;-74
2024/02/18 05:55:33;;;;;;;13.60;7.60;;;;;;;1.56;100.00;99965.53;6113316;19;20007;-74
2024/02/18 05:57:34;;;;;;;14.32;8.18;;;;;;;1.53;100.00;99952.47;6112776;19;20402;-74
2024/02/18 05:59:34;;;;;;;13.02;7.93;;;;;;;1.47;100.00;99955.50;6110688;19;20066;-74
2024/02/18 06:01:34;;;;;;;13.07;8.18;;;;;;;1.43;100.00;99947.09;6108536;19;20012;-74
2024/02/18 06:03:35;;;;;;;13.02;7.40;;;;;;;1.45;100.00;99950.34;6111335;19;20099;-74
2024/02/18 06:05:35;;;;;;;15.48;8.02;;;;;;;1.49;100.00;99943.22;6109564;19;20058;-74
2024/02/18 06:07:35;;;;;;;13.40;8.13;;;;;;;1.39;100.00;99944.09;6111177;19;20972;-74
2024/02/18 06:09:36;;;;;;;14.45;8.68;;;;;;;1.33;100.00;99947.16;6108929;19;20102;-74
2024/02/18 06:11:37;;;;;;;16.20;8.82;;;;;;;1.41;100.00;99941.09;6107641;19;20014;-74
2024/02/18 06:13:37;;;;;;;17.50;9.38;;;;;;;1.49;100.00;99945.97;6107069;19;20020;-73
2024/02/18 06:15:38;;;;;;;14.82;8.38;;;;;;;1.36;100.00;99952.03;6103528;19;20022;-74
2024/02/18 06:17:38;;;;;;;15.23;9.07;;;;;;;1.30;100.00;99956.69;6102618;19;20411;-74
2024/02/18 06:19:42;;;;;;;14.60;9.10;;;;;;;1.31;100.00;99941.13;6101816;19;20003;-74
2024/02/18 06:21:42;;;;;;;15.30;8.45;;;;;;;1.37;100.00;99951.75;6101942;19;20045;-74
2024/02/18 06:23:43;;;;;;;15.05;8.68;;;;;;;1.42;100.00;99940.00;6102639;19;20455;-74
2024/02/18 06:25:43;;;;;;;16.50;7.88;;;;;;;1.42;100.00;99940.00;6101081;19;20014;-74
2024/02/18 06:27:43;;;;;;;13.65;7.80;;;;;;;1.41;100.00;99930.19;6100380;19;20385;-74
2024/02/18 06:29:44;;;;;;;12.52;7.18;;;;;;;1.44;100.00;99939.72;6101383;19;19999;-74
2024/02/18 06:31:44;;;;;;;13.95;7.47;;;;;;;1.37;100.00;99932.66;6101919;19;20010;-74
2024/02/18 06:33:47;;;;;;;12.73;7.93;;;;;;;1.35;100.00;99931.31;6101508;19;20455;-74
2024/02/18 06:35:48;;;;;;;16.00;7.97;;;;;;;1.40;100.00;99928.53;6102077;19;20688;-74
2024/02/18 06:37:48;;;;;;;13.70;7.90;;;;;;;1.48;100.00;99927.94;6102266;19;20007;-74
2024/02/18 06:39:49;;;;;;;15.75;8.10;;;;;;;1.54;100.00;99926.00;6099049;19;20393;-74
2024/02/18 06:41:50;;;;;;;15.55;8.63;;;;;;;1.54;100.00;99928.72;6101020;19;20250;-74
2024/02/18 06:43:51;;;;;;;39.35;8.63;;;;;;;1.47;100.00;99937.22;6101698;19;21047;-74
2024/02/18 06:45:51;;;;;;;17.05;9.15;;;;;;;1.51;100.00;99926.56;6101785;19;20031;-74
2024/02/18 06:47:52;;;;;;;16.52;8.40;;;;;;;1.53;100.00;99930.63;6101343;19;20007;-74
2024/02/18 06:49:53;;;;;;;16.92;8.63;;;;;;;1.62;100.00;99928.94;6100417;19;20428;-74
2024/02/18 06:51:53;;;;;;;17.55;9.55;;;;;;;1.61;100.00;99924.59;6101037;19;20010;-74
2024/02/18 06:53:53;;;;;;;13.85;9.10;;;;;;;1.59;100.00;99931.44;6101238;19;20307;-74
2024/02/18 06:55:54;;;;;;;17.73;9.77;;;;;;;1.58;100.00;99933.34;6101592;19;20439;-74
2024/02/18 06:57:54;;;;;;;19.48;9.25;;;;;;;1.54;100.00;99926.81;6098700;19;20026;-74
2024/02/18 06:59:55;;;;;;;15.40;8.98;;;;;;;1.58;100.00;99930.63;6098646;19;20020;-74
2024/02/18 07:01:56;;;;;;;19.60;10.25;;;;;;;1.62;100.00;99923.47;6099722;19;20007;-74
2024/02/18 07:03:56;;;;;;;17.05;8.73;;;;;;;1.63;100.00;99922.38;6101986;19;20443;-74
2024/02/18 07:05:56;;;;;;;13.57;8.43;;;;;;;1.64;100.00;99923.19;6101004;19;20027;-74
2024/02/18 07:07:57;;;;;;;14.15;8.05;;;;;;;1.60;100.00;99916.69;6102140;19;20009;-74
2024/02/18 07:09:57;;;;;;;17.20;9.90;;;;;;;1.58;100.00;99916.97;6099270;19;20620;-74
2024/02/18 07:11:58;;;;;;;12.65;7.65;;;;;;;1.58;100.00;99919.72;6101631;19;20014;-74
2024/02/18 07:13:58;;;;;;;19.77;8.52;;;;;;;1.58;100.00;99924.34;6102355;19;20322;-74
2024/02/18 07:15:58;;;;;;;14.70;7.82;;;;;;;1.57;100.00;99912.63;6106158;19;19998;-74
2024/02/18 07:17:59;;;;;;;16.10;9.23;;;;;;;1.59;100.00;99918.59;6108257;19;20007;-74
2024/02/18 07:19:59;;;;;;;16.98;9.40;;;;;;;1.59;100.00;99913.16;6108219;19;20010;-74
2024/02/18 07:22:00;;;;;;;12.30;7.82;;;;;;;1.62;100.00;99919.94;6109210;19;20352;-74
2024/02/18 07:24:00;;;;;;;16.88;9.38;;;;;;;1.67;100.00;99922.66;6109224;19;20003;-74
2024/02/18 07:26:00;;;;;;;24.80;13.07;;;;;;;1.68;100.00;99913.34;6109140;19;19998;-74
2024/02/18 07:28:01;;;;;;;31.73;16.75;;;;;;;1.70;100.00;99927.53;6109131;19;20010;-74
2024/02/18 07:30:03;;;;;;;24.38;13.43;;;;;;;1.70;100.00;99922.06;6107124;19;20002;-73
2024/02/18 07:32:03;;;;;;;19.85;12.05;;;;;;;1.73;100.00;99916.03;6107287;19;20003;-74
2024/02/18 07:34:04;;;;;;;14.95;9.75;;;;;;;1.79;100.00;99916.81;6107273;19;20058;-74
2024/02/18 07:36:05;;;;;;;16.23;10.05;;;;;;;1.82;100.00;99916.22;6107975;19;19999;-74
2024/02/18 07:38:05;;;;;;;17.35;10.30;;;;;;;1.87;100.00;99910.75;6108611;19;20002;-74
2024/02/18 07:40:06;;;;;;;15.13;9.38;;;;;;;1.91;100.00;99917.28;6106454;19;20018;-74
2024/02/18 07:42:08;;;;;;;14.18;8.90;;;;;;;1.91;100.00;99915.34;6107375;19;20002;-74
2024/02/18 07:44:08;;;;;;;12.68;8.15;;;;;;;1.96;100.00;99914.47;6109321;19;20013;-74
2024/02/18 07:46:11;;;;;;;15.13;8.15;;;;;;;2.00;100.00;99910.09;6108534;19;20415;-74
2024/02/18 07:48:11;;;;;;;14.07;8.20;;;;;;;2.00;100.00;99903.81;6108697;19;20022;-74
2024/02/18 07:50:12;;;;;;;15.70;9.13;;;;;;;2.03;100.00;99906.78;6106974;19;20336;-74
2024/02/18 07:52:12;;;;;;;13.43;8.27;;;;;;;2.06;100.00;99903.47;6109090;19;20027;-74
2024/02/18 07:54:13;;;;;;;12.68;7.78;;;;;;;2.11;100.00;99903.44;6109448;19;19999;-74
2024/02/18 07:56:14;;;;;;;14.25;8.50;;;;;;;2.16;100.00;99902.59;6108385;19;20071;-74
2024/02/18 07:58:14;;;;;;;13.15;8.15;;;;;;;2.19;100.00;99905.53;6108305;19;20487;-74
2024/02/18 08:00:15;;;;;;;12.15;7.75;;;;;;;2.18;100.00;99901.19;6108274;19;20006;-74
2024/02/18 08:02:16;;;;;;;12.43;7.20;;;;;;;2.22;100.00;99901.41;6109155;19;20002;-74
2024/02/18 08:04:16;;;;;;;15.68;8.55;;;;;;;2.25;100.00;99907.13;6108509;19;20586;-74
2024/02/18 08:06:17;;;;;;;12.70;8.25;;;;;;;2.31;100.00;99898.88;6109059;19;20049;-74
2024/02/18 08:08:17;;;;;;;13.48;7.75;;;;;;;2.35;100.00;99900.75;6107652;19;20495;-74
2024/02/18 08:10:17;;;;;;;11.85;7.97;;;;;;;2.41;100.00;99890.59;6105576;19;20006;-74
2024/02/18 08:12:18;;;;;;;13.50;8.20;;;;;;;2.47;100.00;99890.22;6108470;19;20256;-74
2024/02/18 08:14:18;;;;;;;14.85;8.18;;;;;;;2.55;100.00;99896.97;6107563;19;19999;-74
2024/02/18 08:16:19;;;;;;;10.52;7.10;;;;;;;2.62;100.00;99877.50;6108877;19;20434;-74
2024/02/18 08:18:20;;;;;;;12.15;8.23;;;;;;;2.69;100.00;99883.41;6107599;19;20743;-74
2024/02/18 08:20:20;;;;;;;13.70;8.43;;;;;;;2.75;100.00;99880.34;6108744;19;19999;-74
2024/02/18 08:22:20;;;;;;;13.52;8.52;;;;;;;2.85;100.00;99882.13;6108282;19;20026;-74
2024/02/18 08:24:21;;;;;;;18.75;9.75;;;;;;;2.92;100.00;99879.03;6107909;19;20027;-74
2024/02/18 08:26:25;;;;;;;16.27;10.63;;;;;;;3.01;100.00;99883.56;6108472;19;20056;-74
2024/02/18 08:28:27;;;;;;;17.10;10.50;;;;;;;3.09;100.00;99871.97;6107737;19;20005;-74
2024/02/18 08:30:27;;;;;;;18.88;10.65;;;;;;;3.18;100.00;99869.38;6108749;19;20009;-74
2024/02/18 08:32:28;;;;;;;18.63;10.15;;;;;;;3.27;100.00;99869.53;6108605;19;20007;-74
2024/02/18 08:34:29;;;;;;;15.32;9.88;;;;;;;3.35;100.00;99857.91;6108639;19;20010;-74
2024/02/18 08:36:29;;;;;;;18.95;10.18;;;;;;;3.45;100.00;99851.47;6107538;19;20086;-74
2024/02/18 08:38:30;;;;;;;18.92;10.60;;;;;;;3.57;100.00;99849.09;6106984;19;20006;-74
2024/02/18 08:40:30;;;;;;;18.80;10.45;;;;;;;3.73;100.00;99846.94;6107515;19;20010;-74
2024/02/18 08:42:30;;;;;;;19.58;10.25;;;;;;;3.89;100.00;99849.13;6108284;19;20003;-74
2024/02/18 08:44:31;;;;;;;15.88;9.40;;;;;;;3.99;100.00;99842.63;6107450;19;20010;-74
2024/02/18 08:46:31;;;;;;;20.38;10.90;;;;;;;4.09;100.00;99841.63;6107826;19;20097;-74
2024/02/18 08:48:31;;;;;;;20.38;10.57;;;;;;;4.20;100.00;99834.84;6106516;19;20009;-74
2024/02/18 08:50:32;;;;;;;17.48;10.27;;;;;;;4.31;100.00;99832.75;6106373;19;19999;-74
2024/02/18 08:52:32;;;;;;;17.25;9.30;;;;;;;4.40;100.00;99839.94;6107537;19;20070;-74
2024/02/18 08:54:32;;;;;;;14.88;8.40;;;;;;;4.50;100.00;99826.03;6108739;19;20003;-74
2024/02/18 08:56:33;;;;;;;19.15;9.40;;;;;;;4.57;100.00;99827.56;6107466;19;20351;-74
2024/02/18 08:58:35;;;;;;;16.40;9.68;;;;;;;4.62;100.00;99821.97;6105829;19;20016;-74
2024/02/18 09:00:35;;;;;;;14.13;8.57;;;;;;;4.68;100.00;99818.81;6107070;19;20078;-74
2024/02/18 09:02:35;;;;;;;14.95;8.77;;;;;;;4.74;100.00;99816.78;6108046;19;20820;-74
2024/02/18 09:04:36;;;;;;;14.40;8.63;;;;;;;4.85;100.00;99815.44;6107422;19;20015;-74
2024/02/18 09:06:37;;;;;;;13.77;7.68;;;;;;;4.92;100.00;99815.84;6107799;19;20532;-74
2024/02/18 09:08:37;;;;;;;14.57;8.57;;;;;;;4.99;100.00;99808.00;6107266;19;20006;-74
2024/02/18 09:10:38;;;;;;;16.33;8.73;;;;;;;5.08;100.00;99813.56;6104978;19;20428;-74
2024/02/18 09:12:39;;;;;;;16.65;9.18;;;;;;;5.21;100.00;99809.13;6107215;19;20030;-74
2024/02/18 09:14:39;;;;;;;12.77;8.07;;;;;;;5.28;100.00;99798.53;6107166;19;20383;-74